Time;durP1;ratioP1;P1;durP2;ratioP2;P2;SDS_P1;SDS_P2;PMS_P1;PMS_P2;Temp;Humidity;BMP_temperature;BMP_pressure;BME280_temperature;BME280_humidity;BME280_pressure;Samples;Min_cycle;Max_cycle;Signal;HPM_P1;HPM_P2
2022/11/10 00:01:47;;;;;;;21.52;5.00;;;;;;;8.26;100.00;101547.59;5045198;28;20025;-66
2022/11/10 00:04:13;;;;;;;21.50;4.95;;;;;;;8.23;100.00;101558.06;5045581;28;20037;-67
2022/11/10 00:06:39;;;;;;;22.33;5.28;;;;;;;8.20;100.00;101555.34;5046019;28;20483;-66
2022/11/10 00:09:05;;;;;;;22.75;5.22;;;;;;;8.17;100.00;101548.25;5044847;28;20096;-67
2022/11/10 00:11:31;;;;;;;24.23;5.05;;;;;;;8.17;100.00;101550.00;5046923;28;20548;-67
2022/11/10 00:19:24;;;;;;;25.60;5.82;;;;;;;8.17;100.00;101550.00;5043664;28;20400;-66
2022/11/10 00:21:50;;;;;;;22.88;5.15;;;;;;;8.15;100.00;101544.66;5046406;28;20029;-67
2022/11/10 00:24:15;;;;;;;21.52;4.97;;;;;;;8.21;100.00;101551.84;5044753;28;20029;-67
2022/11/10 00:26:40;;;;;;;23.30;5.13;;;;;;;8.20;100.00;101545.69;5044873;28;20091;-67
2022/11/10 00:29:06;;;;;;;22.13;5.13;;;;;;;8.19;100.00;101554.44;5045961;28;20032;-67
2022/11/10 00:31:31;;;;;;;21.60;4.97;;;;;;;8.09;100.00;101562.06;5022732;28;20042;-67
2022/11/10 00:33:56;;;;;;;21.75;5.03;;;;;;;8.12;100.00;101562.16;5046681;28;20172;-66
2022/11/10 00:36:23;;;;;;;22.55;5.00;;;;;;;8.07;100.00;101564.66;5043722;28;20072;-67
2022/11/10 00:38:49;;;;;;;22.88;4.97;;;;;;;8.06;100.00;101576.03;5046026;28;20052;-67
2022/11/10 00:41:15;;;;;;;23.73;5.40;;;;;;;8.06;100.00;101585.69;5044491;28;20387;-65
2022/11/10 00:43:40;;;;;;;21.67;5.03;;;;;;;8.02;100.00;101588.25;5044590;28;20037;-67
2022/11/10 00:46:05;;;;;;;23.63;5.30;;;;;;;8.03;100.00;101583.88;5045888;28;20029;-67
2022/11/10 00:48:31;;;;;;;22.25;5.15;;;;;;;8.07;100.00;101592.72;5043445;28;20060;-67
2022/11/10 00:50:56;;;;;;;21.05;5.10;;;;;;;8.03;100.00;101587.38;5046398;28;20029;-67
2022/11/10 00:53:21;;;;;;;21.08;5.30;;;;;;;8.08;100.00;101591.88;5043401;28;20128;-68
2022/11/10 00:55:47;;;;;;;23.35;5.15;;;;;;;8.09;100.00;101588.41;5045533;28;20028;-67
2022/11/10 00:58:13;;;;;;;22.55;5.20;;;;;;;8.02;100.00;101585.63;5043509;28;20539;-67
2022/11/10 01:00:39;;;;;;;21.75;5.00;;;;;;;8.06;100.00;101583.06;5042635;28;20101;-67
2022/11/10 01:03:05;;;;;;;22.17;4.60;;;;;;;8.09;100.00;101578.75;5045670;28;20098;-67
2022/11/10 01:05:30;;;;;;;25.08;5.43;;;;;;;8.07;100.00;101584.81;5042807;28;20037;-68
2022/11/10 01:07:58;;;;;;;22.85;5.30;;;;;;;8.07;100.00;101590.09;5038798;28;20108;-67
2022/11/10 01:10:24;;;;;;;22.73;5.07;;;;;;;8.02;100.00;101585.63;5045927;28;20063;-67
2022/11/10 01:12:49;;;;;;;23.67;5.15;;;;;;;8.03;100.00;101589.13;5043262;28;20032;-67
2022/11/10 01:15:14;;;;;;;23.40;5.10;;;;;;;8.05;100.00;101589.19;5044194;28;20061;-67
2022/11/10 01:17:40;;;;;;;24.45;5.32;;;;;;;8.06;100.00;101589.22;5044686;28;20468;-67
2022/11/10 01:20:07;;;;;;;23.80;5.55;;;;;;;8.03;100.00;101595.28;5043000;28;20120;-67
2022/11/10 01:22:33;;;;;;;24.63;5.32;;;;;;;7.99;100.00;101596.06;5045453;28;20017;-66
2022/11/10 01:24:58;;;;;;;23.27;5.00;;;;;;;7.98;100.00;101602.19;5042582;28;20025;-68
2022/11/10 01:27:23;;;;;;;25.00;5.50;;;;;;;8.02;100.00;101618.94;5045394;28;20017;-67
2022/11/10 01:29:49;;;;;;;25.42;5.35;;;;;;;7.97;100.00;101626.72;5043288;28;20017;-67
2022/11/10 01:32:14;;;;;;;22.77;5.05;;;;;;;7.98;100.00;101636.41;5043793;28;20164;-67
2022/11/10 01:34:39;;;;;;;23.88;5.32;;;;;;;8.06;100.00;101625.19;5044484;28;20020;-67
2022/11/10 01:37:04;;;;;;;22.73;5.15;;;;;;;8.06;100.00;101627.84;5042767;28;20361;-67
2022/11/10 01:39:30;;;;;;;22.38;5.15;;;;;;;8.10;100.00;101635.84;5045359;28;20029;-67
2022/11/10 01:41:55;;;;;;;22.58;4.88;;;;;;;8.11;100.00;101632.38;5041934;28;20017;-66
2022/11/10 01:44:23;;;;;;;23.95;5.55;;;;;;;8.11;100.00;101627.13;5044811;28;20507;-67
2022/11/10 01:46:49;;;;;;;25.58;5.28;;;;;;;8.04;100.00;101627.78;5042577;28;20112;-66
2022/11/10 01:49:18;;;;;;;22.10;4.88;;;;;;;8.10;100.00;101630.59;5043604;28;20437;-67
2022/11/10 01:51:46;;;;;;;23.58;4.85;;;;;;;8.08;100.00;101634.03;5043580;28;20033;-67
2022/11/10 01:54:35;;;;;;;23.42;5.30;;;;;;;8.11;100.00;101628.81;5043143;28;20029;-67
2022/11/10 01:57:07;;;;;;;22.08;4.80;;;;;;;8.08;100.00;101629.66;5038818;28;20037;-67
2022/11/10 01:59:40;;;;;;;;;;;;;;;8.10;100.00;101625.31;5039083;28;20560;-66
2022/11/10 02:02:14;;;;;;;23.77;4.88;;;;;;;8.09;100.00;101625.28;5044441;28;19912;-66
2022/11/10 02:04:40;;;;;;;22.00;5.28;;;;;;;8.04;100.00;101622.53;5042954;28;20487;-65
2022/11/10 02:07:08;;;;;;;24.02;4.95;;;;;;;8.05;100.00;101631.31;5044640;28;20091;-66
2022/11/10 02:09:33;;;;;;;22.88;5.10;;;;;;;8.12;100.00;101625.34;5041587;28;20025;-67
2022/11/10 02:11:59;;;;;;;24.15;4.75;;;;;;;8.08;100.00;101626.13;5044835;28;20029;-67
2022/11/10 02:14:24;;;;;;;22.60;4.90;;;;;;;8.09;100.00;101628.78;5041465;28;20026;-67
2022/11/10 02:16:50;;;;;;;21.80;4.63;;;;;;;8.11;100.00;101624.47;5043823;28;20435;-66
2022/11/10 02:19:21;;;;;;;22.83;4.88;;;;;;;8.09;100.00;101635.81;5043058;28;20037;-67
2022/11/10 02:21:47;;;;;;;24.20;5.00;;;;;;;8.08;100.00;101645.47;5043547;28;20468;-67
2022/11/10 02:24:13;;;;;;;22.52;4.95;;;;;;;8.05;100.00;101639.22;5043065;28;20031;-67
2022/11/10 02:26:52;;;;;;;23.45;5.20;;;;;;;8.05;100.00;101649.75;5040996;28;20488;-67
2022/11/10 02:29:17;;;;;;;22.02;4.60;;;;;;;8.05;100.00;101648.00;5042535;28;20071;-67
2022/11/10 02:31:43;;;;;;;22.90;4.75;;;;;;;8.01;100.00;101651.41;5042683;28;20045;-66
2022/11/10 02:34:08;;;;;;;24.60;5.30;;;;;;;7.97;100.00;101658.31;5043475;28;20052;-67
2022/11/10 02:36:33;;;;;;;23.75;4.93;;;;;;;7.92;100.00;101665.22;5041489;28;20066;-67
2022/11/10 02:38:59;;;;;;;21.85;4.45;;;;;;;7.93;100.00;101677.50;5044538;28;20025;-67
2022/11/10 02:41:24;;;;;;;26.63;5.25;;;;;;;7.85;100.00;101679.03;5041110;28;20098;-67
2022/11/10 02:43:52;;;;;;;23.60;4.65;;;;;;;7.84;100.00;101687.78;5043831;28;20542;-67
2022/11/10 02:46:17;;;;;;;23.30;5.20;;;;;;;7.77;100.00;101685.81;5042086;28;20029;-67
2022/11/10 02:48:42;;;;;;;23.55;4.90;;;;;;;7.78;100.00;101687.63;5042334;28;20021;-67
2022/11/10 02:51:08;;;;;;;25.05;4.90;;;;;;;7.75;100.00;101691.03;5043602;28;20033;-67
2022/11/10 02:53:33;;;;;;;24.17;4.85;;;;;;;7.74;100.00;101691.00;5041083;28;20030;-67
2022/11/10 02:55:59;;;;;;;23.20;4.97;;;;;;;7.76;100.00;101679.69;5044372;28;20017;-67
2022/11/10 02:58:24;;;;;;;22.75;5.32;;;;;;;7.75;100.00;101684.91;5041201;28;20398;-67
2022/11/10 03:00:49;;;;;;;22.17;4.90;;;;;;;7.80;100.00;101681.53;5043490;28;20018;-67
2022/11/10 03:03:15;;;;;;;22.60;4.82;;;;;;;7.79;100.00;101678.84;5042638;28;20049;-67
2022/11/10 03:05:40;;;;;;;23.05;5.00;;;;;;;7.76;100.00;101686.66;5042090;28;20096;-67
2022/11/10 03:08:05;;;;;;;21.42;4.55;;;;;;;7.76;100.00;101689.28;5043537;28;20445;-67
2022/11/10 03:10:31;;;;;;;24.33;4.93;;;;;;;7.75;100.00;101688.41;5040804;28;20497;-67
2022/11/10 03:12:59;;;;;;;22.80;4.93;;;;;;;7.73;100.00;101697.09;5043837;28;20079;-67
2022/11/10 03:15:25;;;;;;;22.52;4.78;;;;;;;7.69;100.00;101698.75;5040753;28;20049;-67
2022/11/10 03:17:51;;;;;;;24.50;5.00;;;;;;;7.63;100.00;101704.72;5043370;28;20124;-67
2022/11/10 03:20:17;;;;;;;26.80;4.90;;;;;;;7.62;100.00;101704.69;5042230;28;20109;-67
2022/11/10 03:22:42;;;;;;;21.60;4.68;;;;;;;7.57;100.00;101699.28;5046323;28;20468;-67
2022/11/10 03:25:08;;;;;;;24.38;5.40;;;;;;;7.65;100.00;101705.66;5047372;28;20021;-67
2022/11/10 03:27:34;;;;;;;23.77;4.88;;;;;;;7.66;100.00;101709.19;5044940;28;20044;-67
2022/11/10 03:29:59;;;;;;;20.75;4.90;;;;;;;7.70;100.00;101713.69;5048146;28;20472;-68
2022/11/10 03:32:24;;;;;;;25.05;5.13;;;;;;;7.67;100.00;101718.84;5045123;28;20025;-67
2022/11/10 03:34:50;;;;;;;24.33;4.85;;;;;;;7.63;100.00;101725.78;5046763;28;20025;-67
2022/11/10 03:37:15;;;;;;;22.98;4.70;;;;;;;7.62;100.00;101734.50;5046033;28;20033;-66
2022/11/10 03:39:40;;;;;;;23.30;4.93;;;;;;;7.55;100.00;101737.81;5045615;28;20032;-67
2022/11/10 03:42:05;;;;;;;24.88;5.05;;;;;;;7.51;100.00;101733.28;5047540;28;20021;-67
2022/11/10 03:44:31;;;;;;;21.02;4.78;;;;;;;7.53;100.00;101734.25;5044247;28;20013;-67
2022/11/10 03:46:56;;;;;;;21.58;5.00;;;;;;;7.52;100.00;101742.97;5047416;28;20048;-68
2022/11/10 03:49:21;;;;;;;22.00;4.63;;;;;;;7.50;100.00;101755.19;5045026;28;20033;-67
2022/11/10 03:51:47;;;;;;;23.88;5.10;;;;;;;7.48;100.00;101746.34;5046515;28;20026;-67
2022/11/10 03:54:12;;;;;;;23.75;5.40;;;;;;;7.45;100.00;101751.50;5046094;28;20047;-67
2022/11/10 03:56:37;;;;;;;25.80;5.35;;;;;;;7.49;100.00;101753.41;5044634;28;20033;-68
2022/11/10 03:59:03;;;;;;;21.38;4.97;;;;;;;7.42;100.00;101764.56;5047241;28;20078;-67
2022/11/10 04:01:28;;;;;;;25.63;5.18;;;;;;;7.33;100.00;101771.31;5044080;28;20030;-67
2022/11/10 04:03:55;;;;;;;26.27;5.82;;;;;;;7.27;100.00;101768.50;5046914;28;20376;-67
2022/11/10 04:09:06;;;;;;;24.50;5.75;;;;;;;7.32;100.00;101772.19;5041280;28;20091;-67
2022/11/10 04:17:00;;;;;;;22.60;5.18;;;;;;;7.27;100.00;101781.66;5039723;28;20052;-67
2022/11/10 04:19:26;;;;;;;24.85;5.57;;;;;;;7.27;100.00;101781.66;5046667;28;20118;-66
2022/11/10 04:21:51;;;;;;;25.27;5.82;;;;;;;7.36;100.00;101783.69;5044952;28;20067;-67
2022/11/10 04:24:17;;;;;;;25.10;5.40;;;;;;;7.38;100.00;101791.63;5045320;28;20104;-67
2022/11/10 04:26:43;;;;;;;25.65;5.47;;;;;;;7.37;100.00;101793.38;5045671;28;20032;-67
2022/11/10 04:29:10;;;;;;;25.42;5.60;;;;;;;7.33;100.00;101802.88;5044352;28;20029;-67
2022/11/10 04:31:40;;;;;;;24.70;5.47;;;;;;;7.36;100.00;101804.72;5045677;28;20025;-67
2022/11/10 04:34:07;;;;;;;24.92;5.38;;;;;;;7.32;100.00;101802.84;5042951;28;20036;-66
2022/11/10 04:36:35;;;;;;;25.50;5.57;;;;;;;7.32;100.00;101809.00;5046729;28;20537;-67
2022/11/10 04:39:01;;;;;;;23.30;5.43;;;;;;;7.30;100.00;101810.69;5043095;28;20427;-67
2022/11/10 04:41:29;;;;;;;26.10;5.43;;;;;;;7.31;100.00;101815.09;5046327;28;20036;-66
2022/11/10 04:43:55;;;;;;;25.90;5.78;;;;;;;7.33;100.00;101821.28;5043777;28;20028;-67
2022/11/10 04:46:32;;;;;;;24.58;5.40;;;;;;;7.32;100.00;101830.06;5045447;28;20435;-67
2022/11/10 04:48:58;;;;;;;25.02;5.32;;;;;;;7.29;100.00;101836.94;5038922;28;20087;-68
2022/11/10 04:51:32;;;;;;;23.80;5.20;;;;;;;7.24;100.00;101836.78;5046015;28;20419;-67
2022/11/10 04:53:58;;;;;;;25.35;5.90;;;;;;;7.18;100.00;101841.84;5042965;28;20098;-67
2022/11/10 04:56:24;;;;;;;25.30;5.45;;;;;;;7.25;100.00;101842.94;5045601;28;20033;-68
2022/11/10 04:58:50;;;;;;;24.25;5.45;;;;;;;7.30;100.00;101849.25;5044016;28;20025;-67
2022/11/10 05:01:19;;;;;;;25.58;5.90;;;;;;;7.28;100.00;101851.84;5044719;28;20068;-68
2022/11/10 05:03:46;;;;;;;25.48;5.38;;;;;;;7.29;100.00;101853.59;5044594;28;20033;-68
2022/11/10 05:06:11;;;;;;;26.15;5.65;;;;;;;7.23;100.00;101853.41;5043719;28;20437;-68
2022/11/10 05:08:39;;;;;;;25.17;5.43;;;;;;;7.23;100.00;101858.66;5045703;28;20063;-68
2022/11/10 05:11:05;;;;;;;26.08;5.20;;;;;;;7.12;100.00;101853.03;5042691;28;20029;-68
2022/11/10 05:13:31;;;;;;;26.58;5.50;;;;;;;7.17;100.00;101868.09;5046021;28;20059;-67
2022/11/10 05:15:56;;;;;;;24.60;5.78;;;;;;;7.24;100.00;101870.09;5043030;28;20176;-68
2022/11/10 05:18:22;;;;;;;26.73;6.28;;;;;;;7.22;100.00;101874.38;5045030;28;20073;-67
2022/11/10 05:20:48;;;;;;;23.70;5.45;;;;;;;7.20;100.00;101874.34;5044007;28;20066;-68
2022/11/10 05:25:57;;;;;;;25.20;5.72;;;;;;;7.23;100.00;101877.06;5042724;28;20507;-67
2022/11/10 05:28:23;;;;;;;24.17;5.22;;;;;;;7.19;100.00;101875.16;5044869;28;20037;-67
2022/11/10 05:30:48;;;;;;;25.55;5.70;;;;;;;7.15;100.00;101878.56;5043852;28;20028;-67
2022/11/10 05:33:13;;;;;;;26.42;5.57;;;;;;;7.10;100.00;101880.13;5043460;28;20026;-67
2022/11/10 05:35:39;;;;;;;27.27;5.65;;;;;;;7.10;100.00;101870.47;5044915;28;20099;-67
2022/11/10 05:38:05;;;;;;;24.15;5.78;;;;;;;7.06;100.00;101862.44;5042384;28;20033;-67
2022/11/10 05:40:32;;;;;;;25.13;5.47;;;;;;;7.02;100.00;101858.81;5045423;28;20032;-66
2022/11/10 05:42:57;;;;;;;25.70;5.75;;;;;;;6.99;100.00;101861.34;5041979;28;20021;-67
2022/11/10 05:45:25;;;;;;;29.85;6.05;;;;;;;6.98;100.00;101860.44;5044445;28;20480;-68
2022/11/10 05:47:51;;;;;;;23.83;5.60;;;;;;;7.00;100.00;101878.88;5043024;28;20853;-67
2022/11/10 05:50:18;;;;;;;24.45;5.65;;;;;;;7.00;100.00;101878.00;5043649;28;20021;-67
2022/11/10 05:52:46;;;;;;;25.08;6.25;;;;;;;6.99;100.00;101890.28;5043941;28;20047;-67
2022/11/10 05:55:12;;;;;;;24.92;6.22;;;;;;;6.91;100.00;101897.84;5043045;28;20385;-67
2022/11/10 05:57:40;;;;;;;25.98;6.07;;;;;;;6.88;100.00;101895.13;5044656;28;20021;-67
2022/11/10 06:00:06;;;;;;;26.13;5.88;;;;;;;6.84;100.00;101895.84;5042010;28;20037;-67
2022/11/10 06:02:31;;;;;;;27.48;5.95;;;;;;;6.88;100.00;101895.13;5045020;28;20028;-66
2022/11/10 06:04:57;;;;;;;24.75;5.78;;;;;;;6.84;100.00;101898.47;5042119;28;20029;-67
2022/11/10 06:07:22;;;;;;;24.55;6.03;;;;;;;6.86;100.00;101896.81;5044223;28;20163;-66
2022/11/10 06:09:47;;;;;;;26.83;6.15;;;;;;;6.79;100.00;101910.56;5042982;28;20029;-67
2022/11/10 06:12:14;;;;;;;27.63;6.10;;;;;;;6.81;100.00;101916.75;5042652;28;20167;-67
2022/11/10 06:14:39;;;;;;;26.77;5.90;;;;;;;6.76;100.00;101920.97;5043334;28;20041;-66
2022/11/10 06:17:04;;;;;;;28.98;5.88;;;;;;;6.70;100.00;101920.72;5041137;28;20049;-67
2022/11/10 06:19:30;;;;;;;24.38;5.57;;;;;;;6.70;100.00;101920.72;5044783;28;20545;-67
2022/11/10 06:21:55;;;;;;;27.48;6.07;;;;;;;6.76;100.00;101920.97;5041802;28;20029;-68
2022/11/10 06:24:20;;;;;;;26.45;5.95;;;;;;;6.76;100.00;101926.22;5043467;28;20053;-68
2022/11/10 06:26:46;;;;;;;23.83;5.57;;;;;;;6.77;100.00;101922.75;5043183;28;20017;-68
2022/11/10 06:29:11;;;;;;;26.92;5.70;;;;;;;6.73;100.00;101924.38;5042053;28;20060;-68
2022/11/10 06:31:36;;;;;;;24.20;5.70;;;;;;;6.71;100.00;101922.53;5044170;28;20067;-68
2022/11/10 06:34:01;;;;;;;26.20;6.43;;;;;;;6.71;100.00;101933.91;5038927;28;20488;-64
2022/11/10 06:36:27;;;;;;;26.67;6.40;;;;;;;6.76;100.00;101942.88;5038506;28;20017;-65
2022/11/10 06:38:52;;;;;;;26.77;6.07;;;;;;;6.77;100.00;101949.94;5045862;28;20095;-65
2022/11/10 06:41:17;;;;;;;26.73;6.55;;;;;;;6.77;100.00;101955.19;5045458;28;20436;-65
2022/11/10 06:43:43;;;;;;;26.92;6.20;;;;;;;6.73;100.00;101947.16;5045519;28;20480;-64
2022/11/10 06:46:08;;;;;;;24.83;6.00;;;;;;;6.77;100.00;101962.16;5045543;28;20029;-65
2022/11/10 06:48:33;;;;;;;27.90;6.22;;;;;;;6.78;100.00;101959.59;5041457;28;20468;-66
2022/11/10 06:51:00;;;;;;;26.20;5.85;;;;;;;6.74;100.00;101960.34;5046632;28;20032;-66
2022/11/10 06:53:25;;;;;;;26.77;6.38;;;;;;;6.72;100.00;101971.63;5041434;28;20029;-65
2022/11/10 06:55:51;;;;;;;27.13;6.32;;;;;;;6.71;100.00;101975.06;5043832;28;20089;-66
2022/11/10 06:58:16;;;;;;;23.83;5.82;;;;;;;6.75;100.00;101984.88;5044971;28;20045;-64
2022/11/10 07:00:41;;;;;;;27.75;6.57;;;;;;;6.78;100.00;101988.50;5045775;28;20057;-64
2022/11/10 07:03:10;;;;;;;26.90;6.22;;;;;;;6.82;100.00;101989.53;5044088;28;20430;-65
2022/11/10 07:05:36;;;;;;;27.25;6.60;;;;;;;6.84;100.00;101982.59;5041944;28;20465;-65
2022/11/10 07:08:06;;;;;;;28.48;6.03;;;;;;;6.90;100.00;101980.22;5044832;28;20028;-65
2022/11/10 07:10:32;;;;;;;29.55;6.43;;;;;;;6.89;100.00;101988.03;5044470;28;20024;-65
2022/11/10 07:13:01;;;;;;;27.08;6.28;;;;;;;6.88;100.00;101996.75;5045279;28;20475;-65
2022/11/10 07:15:27;;;;;;;28.08;6.18;;;;;;;6.85;100.00;101994.91;5041725;28;20107;-63
2022/11/10 07:17:52;;;;;;;25.13;5.93;;;;;;;7.00;100.00;102005.09;5042854;28;20045;-64
2022/11/10 07:20:17;;;;;;;27.35;6.07;;;;;;;7.03;100.00;102014.84;5042574;28;20087;-63
2022/11/10 07:22:43;;;;;;;27.83;6.10;;;;;;;7.07;100.00;102011.50;5047590;28;20028;-63
2022/11/10 07:25:08;;;;;;;26.05;6.07;;;;;;;7.10;100.00;102020.38;5045404;28;20349;-65
2022/11/10 07:27:34;;;;;;;24.83;5.65;;;;;;;7.13;100.00;102016.97;5051628;28;20029;-65
2022/11/10 07:29:59;;;;;;;25.83;6.57;;;;;;;7.22;100.00;102021.66;5051632;28;20052;-65
2022/11/10 07:32:25;;;;;;;26.05;5.97;;;;;;;7.22;100.00;102035.69;5047687;28;20099;-65
2022/11/10 07:34:50;;;;;;;24.13;5.68;;;;;;;7.27;100.00;102049.94;5048088;28;20079;-66
2022/11/10 07:37:15;;;;;;;28.85;5.97;;;;;;;7.29;100.00;102040.34;5040199;28;20436;-65
2022/11/10 07:39:41;;;;;;;29.08;5.82;;;;;;;7.33;100.00;102050.16;5046538;28;20087;-65
2022/11/10 07:42:06;;;;;;;27.08;5.93;;;;;;;7.37;100.00;102052.91;5045132;28;20022;-65
2022/11/10 07:44:31;;;;;;;24.60;5.30;;;;;;;7.38;100.00;102044.19;5049607;28;20373;-64
2022/11/10 07:46:57;;;;;;;24.52;5.55;;;;;;;7.41;100.00;102049.53;5040658;28;20025;-65
2022/11/10 07:49:22;;;;;;;25.35;5.57;;;;;;;7.41;100.00;102049.53;5048052;28;20032;-63
2022/11/10 07:51:48;;;;;;;23.83;6.03;;;;;;;7.48;100.00;102048.94;5044944;28;20021;-65
2022/11/10 07:54:13;;;;;;;25.48;5.60;;;;;;;7.60;100.00;102045.84;5043883;28;20033;-65
2022/11/10 07:56:38;;;;;;;26.17;6.15;;;;;;;7.75;100.00;102053.41;5039959;28;20052;-65
2022/11/10 07:59:03;;;;;;;22.48;5.40;;;;;;;7.83;100.00;102049.28;5044115;28;20479;-65
2022/11/10 08:01:29;;;;;;;26.90;5.80;;;;;;;7.94;100.00;102053.19;5048038;28;20025;-66
2022/11/10 08:03:54;;;;;;;25.45;5.60;;;;;;;8.02;100.00;102074.50;5043802;28;20021;-65
2022/11/10 08:06:20;;;;;;;23.80;5.40;;;;;;;8.14;100.00;102066.13;5038751;28;20437;-65
2022/11/10 08:08:46;;;;;;;22.42;5.22;;;;;;;8.20;100.00;102076.91;5048346;28;20400;-67
2022/11/10 08:11:11;;;;;;;22.45;5.15;;;;;;;8.26;100.00;102079.72;5053354;28;20033;-67
2022/11/10 08:13:38;;;;;;;23.52;5.03;;;;;;;8.34;100.00;102086.16;5048721;28;20024;-67
2022/11/10 08:16:04;;;;;;;24.20;5.15;;;;;;;8.43;100.00;102096.09;5043396;28;20048;-66
2022/11/10 08:18:29;;;;;;;23.25;5.20;;;;;;;8.54;100.00;102099.13;5043245;28;20024;-67
2022/11/10 08:20:54;;;;;;;22.02;5.15;;;;;;;8.62;100.00;102102.91;5042367;28;20491;-68
2022/11/10 08:23:20;;;;;;;23.65;5.20;;;;;;;8.67;100.00;102098.66;5046707;28;20029;-68
2022/11/10 08:25:46;;;;;;;23.73;5.30;;;;;;;8.71;100.00;102113.75;5043763;28;20053;-67
2022/11/10 08:28:15;;;;;;;24.88;5.50;;;;;;;8.84;100.00;102098.28;5046158;28;20071;-68
2022/11/10 08:30:42;;;;;;;23.27;4.88;;;;;;;8.93;100.00;102102.97;5044115;28;20494;-68
2022/11/10 08:33:09;;;;;;;22.83;5.10;;;;;;;9.05;100.00;102108.63;5045684;28;20381;-68
2022/11/10 08:35:38;;;;;;;22.00;5.03;;;;;;;9.18;100.00;102110.78;5045093;28;20021;-68
2022/11/10 08:38:20;;;;;;;23.58;5.40;;;;;;;9.35;100.00;102103.38;5044865;28;20025;-68
2022/11/10 08:40:46;;;;;;;23.55;5.38;;;;;;;9.41;100.00;102103.56;5043119;28;20033;-67
2022/11/10 08:43:12;;;;;;;24.90;5.22;;;;;;;9.51;100.00;102103.81;5046340;28;20033;-68
2022/11/10 08:45:40;;;;;;;21.83;4.70;;;;;;;9.52;100.00;102111.81;5044500;28;20059;-68
2022/11/10 08:48:11;;;;;;;23.05;4.97;;;;;;;9.57;100.00;102114.56;5044987;28;20026;-68
2022/11/10 08:50:37;;;;;;;23.48;5.40;;;;;;;9.58;100.00;102116.34;5044484;28;20029;-66
2022/11/10 08:53:15;;;;;;;22.45;5.00;;;;;;;9.60;100.00;102114.66;5044196;28;20032;-68
2022/11/10 08:55:41;;;;;;;20.63;4.30;;;;;;;9.71;100.00;102123.78;5043721;28;20040;-68
2022/11/10 08:58:11;;;;;;;23.52;4.80;;;;;;;9.77;100.00;102123.94;5043500;28;20037;-68
2022/11/10 09:00:36;;;;;;;22.25;4.82;;;;;;;9.88;100.00;102133.91;5044408;28;20028;-67
2022/11/10 09:03:08;;;;;;;20.75;4.50;;;;;;;10.00;100.00;102121.03;5044552;28;20025;-67
2022/11/10 09:05:34;;;;;;;24.15;5.00;;;;;;;10.15;100.00;102132.88;5044543;28;20036;-67
2022/11/10 09:08:01;;;;;;;23.10;4.90;;;;;;;10.25;100.00;102143.72;5043830;28;20017;-67
2022/11/10 09:10:26;;;;;;;22.38;4.70;;;;;;;10.37;100.00;102140.53;5045574;28;20375;-66
2022/11/10 09:12:52;;;;;;;20.42;4.50;;;;;;;10.45;100.00;102146.91;5042550;28;20025;-67
2022/11/10 09:15:18;;;;;;;22.75;4.35;;;;;;;10.54;100.00;102145.34;5038443;28;20542;-67
2022/11/10 09:17:44;;;;;;;22.90;4.88;;;;;;;10.76;100.00;102152.97;5045143;28;20492;-67
2022/11/10 09:20:11;;;;;;;24.05;4.60;;;;;;;10.87;100.00;102155.00;5043200;28;20048;-67
2022/11/10 09:22:37;;;;;;;22.23;4.75;;;;;;;10.91;100.00;102162.16;5044738;28;20029;-67
2022/11/10 09:25:03;;;;;;;20.45;3.97;;;;;;;10.86;100.00;102153.19;5044274;28;20108;-67
2022/11/10 09:27:29;;;;;;;23.67;4.50;;;;;;;10.79;100.00;102157.44;5043228;28;20091;-67
2022/11/10 09:29:54;;;;;;;21.92;4.90;;;;;;;10.85;100.00;102156.69;5045553;28;20033;-67
2022/11/10 09:32:20;;;;;;;23.05;5.05;;;;;;;11.01;100.00;102148.28;5042187;28;20037;-67
2022/11/10 09:34:45;;;;;;;22.30;4.53;;;;;;;11.09;100.00;102157.25;5045472;28;20025;-67
2022/11/10 09:37:10;;;;;;;24.90;5.35;;;;;;;11.16;100.00;102153.91;5043160;28;20036;-67
2022/11/10 09:39:36;;;;;;;21.50;4.97;;;;;;;11.28;100.00;102160.34;5043867;28;20491;-67
2022/11/10 09:42:05;;;;;;;22.58;4.57;;;;;;;11.36;100.00;102148.19;5044427;28;20029;-67
2022/11/10 09:44:38;;;;;;;21.63;4.22;;;;;;;11.63;100.00;102154.91;5043504;28;20030;-67
2022/11/10 09:47:12;;;;;;;22.58;4.55;;;;;;;11.80;100.00;102156.16;5042506;28;20025;-67
2022/11/10 09:49:41;;;;;;;20.92;4.63;;;;;;;11.84;100.00;102162.41;5040685;28;20131;-67
2022/11/10 09:52:09;;;;;;;19.15;4.07;;;;;;;11.94;100.00;102167.06;5041969;28;20037;-67
2022/11/10 09:54:46;;;;;;;20.30;4.30;;;;;;;12.07;100.00;102169.94;5044934;28;20071;-67
2022/11/10 09:57:15;;;;;;;20.60;4.40;;;;;;;12.27;100.00;102163.25;5040130;28;20032;-67
2022/11/10 09:59:42;;;;;;;21.10;4.22;;;;;;;12.31;100.00;102169.53;5043773;28;20032;-67
2022/11/10 10:02:19;;;;;;;23.25;4.60;;;;;;;12.68;100.00;102157.78;5041945;28;20464;-67
2022/11/10 10:05:22;;;;;;;23.70;4.72;;;;;;;13.14;100.00;102164.69;5043537;28;20028;-67
2022/11/10 10:08:17;;;;;;;21.15;4.18;;;;;;;13.25;100.00;102161.31;5041502;28;20469;-67
2022/11/10 10:10:55;;;;;;;20.13;3.90;;;;;;;13.41;100.00;102161.53;5040029;28;20064;-67
2022/11/10 10:13:51;;;;;;;21.73;4.18;;;;;;;13.34;100.00;102156.97;5037708;28;20048;-67
2022/11/10 10:16:30;;;;;;;21.42;4.00;;;;;;;13.37;100.00;102170.38;5034552;28;20045;-69
2022/11/10 10:19:20;;;;;;;21.63;3.92;;;;;;;13.46;100.00;102174.91;5038854;28;20064;-69
2022/11/10 10:22:16;;;;;;;20.00;3.83;;;;;;;13.69;100.00;102176.09;5019301;28;20034;-69
2022/11/10 10:24:41;;;;;;;19.80;3.90;;;;;;;13.77;100.00;102186.81;5022043;28;20037;-69
2022/11/10 10:27:13;;;;;;;20.45;4.05;;;;;;;14.17;100.00;102191.69;5020638;28;20041;-69
2022/11/10 10:29:43;;;;;;;21.70;4.05;;;;;;;14.76;100.00;102193.19;5021525;28;20030;-68
2022/11/10 10:32:17;;;;;;;20.15;3.80;;;;;;;15.17;100.00;102205.91;5020036;28;20033;-69
2022/11/10 10:34:44;;;;;;;17.80;3.60;;;;;;;15.46;100.00;102199.88;5015918;28;20033;-67
2022/11/10 10:37:25;;;;;;;19.23;3.78;;;;;;;15.66;100.00;102211.53;5029716;28;20072;-65
2022/11/10 10:39:56;;;;;;;20.85;3.75;;;;;;;16.13;100.00;102214.41;5020602;28;20044;-64
2022/11/10 10:42:33;;;;;;;22.20;4.00;;;;;;;16.09;100.00;102223.28;5025818;28;20370;-66
2022/11/10 10:45:13;;;;;;;20.45;4.10;;;;;;;16.34;100.00;102227.81;5025801;28;20124;-66
2022/11/10 10:47:39;;;;;;;20.83;4.18;;;;;;;16.95;100.00;102235.91;5022071;28;20034;-67
2022/11/10 10:50:22;;;;;;;21.40;3.70;;;;;;;17.25;100.00;102235.00;5024148;28;20087;-67
2022/11/10 10:53:06;;;;;;;20.52;3.78;;;;;;;17.35;100.00;102239.44;5023193;28;20151;-67
2022/11/10 10:55:32;;;;;;;20.88;3.97;;;;;;;17.98;100.00;102235.69;5023866;28;20037;-67
2022/11/10 10:58:00;;;;;;;19.35;3.65;;;;;;;18.10;100.00;102240.09;5028201;28;20036;-67
2022/11/10 11:00:25;;;;;;;19.60;3.60;;;;;;;18.25;100.00;102232.00;5044006;28;20033;-69
2022/11/10 11:03:02;;;;;;;17.80;3.30;;;;;;;18.61;100.00;102240.69;5049745;28;20025;-69
2022/11/10 11:05:28;;;;;;;19.80;3.65;;;;;;;18.50;100.00;102228.28;5044811;28;20076;-69
2022/11/10 11:08:02;;;;;;;18.48;3.60;;;;;;;18.34;100.00;102228.38;5045876;28;20108;-69
2022/11/10 11:10:32;;;;;;;17.23;3.33;;;;;;;18.14;100.00;102227.59;5047341;28;20480;-69
2022/11/10 11:13:21;;;;;;;18.98;3.40;;;;;;;18.31;100.00;102220.38;5041611;28;20033;-69
2022/11/10 11:15:59;;;;;;;17.33;3.50;;;;;;;17.97;100.00;102219.66;5014624;28;20029;-68
2022/11/10 11:18:30;;;;;;;19.73;3.60;;;;;;;17.66;100.00;102223.31;5019323;28;20042;-68
2022/11/10 11:21:36;;;;;;;15.93;3.10;;;;;;;17.85;100.00;102234.81;5021634;28;20475;-69
2022/11/10 11:24:46;;;;;;;17.95;3.47;;;;;;;17.96;100.00;102217.91;5018198;28;20034;-68
2022/11/10 11:27:30;;;;;;;20.48;3.75;;;;;;;17.81;100.00;102224.16;5021089;28;20555;-68
2022/11/10 11:30:10;;;;;;;18.83;3.30;;;;;;;18.57;100.00;102224.69;5019573;28;20053;-67
2022/11/10 11:32:48;;;;;;;16.95;3.10;;;;;;;19.28;100.00;102226.75;5019621;28;20482;-68
2022/11/10 11:35:38;;;;;;;20.38;3.53;;;;;;;19.72;100.00;102228.06;5021620;28;20030;-68
2022/11/10 11:38:14;;;;;;;16.98;3.10;;;;;;;19.71;95.72;102241.50;5020250;28;20068;-68